Time,TemperatureF,DewpointF,PressureIn,WindDirection,WindDirectionDegrees,WindSpeedMPH,WindSpeedGustMPH,Humidity,HourlyPrecipIn,Conditions,Clouds,dailyrainin,SoftwareType,DateUTC
2013-03-09 00:01:00,33.8,25.8,30.30,East,100,0.0,0.0,72,0.00,,,0.00,WUHU216WMR968SP,2013-03-09 05:01:00,
2013-03-09 00:06:00,33.6,25.9,30.30,East,100,0.0,0.0,73,0.00,,,0.00,WUHU216WMR968SP,2013-03-09 05:06:00,
2013-03-09 00:11:00,33.6,26.2,30.30,East,100,0.0,0.0,74,0.00,,,0.00,WUHU216WMR968SP,2013-03-09 05:11:00,
2013-03-09 00:16:00,33.6,26.6,30.30,East,100,0.0,0.0,75,0.00,,,0.00,WUHU216WMR968SP,2013-03-09 05:16:00,
2013-03-09 00:21:00,33.6,26.6,30.30,East,100,0.0,0.0,75,0.00,,,0.00,WUHU216WMR968SP,2013-03-09 05:21:00,
2013-03-09 00:26:00,33.3,26.6,30.30,East,100,0.0,0.0,76,0.00,,,0.00,WUHU216WMR968SP,2013-03-09 05:26:00,
2013-03-09 00:31:00,33.3,26.6,30.30,East,100,0.0,0.0,76,0.00,,,0.00,WUHU216WMR968SP,2013-03-09 05:31:00,
2013-03-09 00:36:00,33.1,26.7,30.30,ESE,114,0.0,0.0,77,0.00,,,0.00,WUHU216WMR968SP,2013-03-09 05:36:00,
2013-03-09 00:41:00,33.1,26.7,30.30,ESE,114,0.0,0.0,77,0.00,,,0.00,WUHU216WMR968SP,2013-03-09 05:41:00,
2013-03-09 00:46:00,32.7,26.3,30.30,ESE,114,0.0,0.0,77,0.00,,,0.00,WUHU216WMR968SP,2013-03-09 05:46:00,
2013-03-09 00:51:00,32.7,26.3,30.30,ESE,114,0.0,0.0,77,0.00,,,0.00,WUHU216WMR968SP,2013-03-09 05:51:00,
2013-03-09 00:56:00,32.5,26.1,30.30,ESE,114,0.0,0.0,77,0.00,,,0.00,WUHU216WMR968SP,2013-03-09 05:56:00,
2013-03-09 01:01:00,32.7,26.3,30.30,ESE,115,0.0,0.0,77,0.00,,,0.00,WUHU216WMR968SP,2013-03-09 06:01:00,
2013-03-09 01:07:00,33.1,26.7,30.30,ESE,115,0.0,0.0,77,0.00,,,0.00,WUHU216WMR968SP,2013-03-09 06:07:00,
2013-03-09 01:12:00,32.7,26.3,30.30,ESE,111,0.0,0.0,77,0.00,,,0.00,WUHU216WMR968SP,2013-03-09 06:12:00,
2013-03-09 01:17:00,32.5,26.1,30.30,ESE,106,0.0,0.0,77,0.00,,,0.00,WUHU216WMR968SP,2013-03-09 06:17:00,
2013-03-09 01:22:00,32.7,26.3,30.30,ESE,106,0.0,0.0,77,0.00,,,0.00,WUHU216WMR968SP,2013-03-09 06:22:00,
2013-03-09 01:27:00,32.4,26.0,30.30,ESE,106,0.0,0.0,77,0.00,,,0.00,WUHU216WMR968SP,2013-03-09 06:27:00,
2013-03-09 01:32:00,32.2,26.1,30.30,ESE,106,0.0,0.0,78,0.00,,,0.00,WUHU216WMR968SP,2013-03-09 06:32:00,
2013-03-09 01:37:00,32.0,25.9,30.30,ESE,106,0.0,0.0,78,0.00,,,0.00,WUHU216WMR968SP,2013-03-09 06:37:00,
2013-03-09 01:42:00,31.6,25.5,30.30,ESE,106,0.0,0.0,78,0.00,,,0.00,WUHU216WMR968SP,2013-03-09 06:42:00,
2013-03-09 01:47:00,31.5,25.5,30.30,ESE,106,0.0,0.0,78,0.00,,,0.00,WUHU216WMR968SP,2013-03-09 06:47:00,
2013-03-09 01:52:00,31.5,25.8,30.30,ESE,111,3.3,4.6,79,0.00,,,0.00,WUHU216WMR968SP,2013-03-09 06:52:00,
2013-03-09 01:57:00,31.8,26.3,30.30,East,99,0.0,5.4,80,0.00,,,0.00,WUHU216WMR968SP,2013-03-09 06:57:00,
2013-03-09 02:02:00,32.4,26.9,30.30,East,97,0.0,5.4,80,0.00,,,0.00,WUHU216WMR968SP,2013-03-09 07:02:00,
2013-03-09 02:07:00,32.9,27.7,30.30,East,97,0.0,0.0,81,0.00,,,0.00,WUHU216WMR968SP,2013-03-09 07:07:00,
2013-03-09 02:12:00,32.5,27.0,30.30,East,94,0.0,0.0,80,0.00,,,0.00,WUHU216WMR968SP,2013-03-09 07:12:00,
2013-03-09 02:17:00,32.7,27.2,30.30,East,94,0.0,0.0,80,0.00,,,0.00,WUHU216WMR968SP,2013-03-09 07:17:00,
2013-03-09 02:22:00,32.9,27.7,30.27,ENE,69,0.0,0.0,81,0.00,,,0.00,WUHU216WMR968SP,2013-03-09 07:22:00,
2013-03-09 02:27:00,33.1,27.9,30.27,ENE,60,0.0,0.0,81,0.00,,,0.00,WUHU216WMR968SP,2013-03-09 07:27:00,
2013-03-09 02:32:00,33.3,28.1,30.27,ENE,60,0.0,0.0,81,0.00,,,0.00,WUHU216WMR968SP,2013-03-09 07:32:00,
2013-03-09 02:37:00,33.1,27.6,30.27,ENE,60,0.0,0.0,80,0.00,,,0.00,WUHU216WMR968SP,2013-03-09 07:37:00,
2013-03-09 02:42:00,32.7,27.2,30.27,ENE,60,0.0,0.0,80,0.00,,,0.00,WUHU216WMR968SP,2013-03-09 07:42:00,
2013-03-09 02:47:00,32.2,26.7,30.27,ENE,67,0.0,0.0,80,0.00,,,0.00,WUHU216WMR968SP,2013-03-09 07:47:00,
2013-03-09 02:52:00,32.4,26.9,30.27,ENE,67,0.0,0.0,80,0.00,,,0.00,WUHU216WMR968SP,2013-03-09 07:52:00,
2013-03-09 02:57:00,32.5,27.0,30.27,ENE,67,0.0,0.0,80,0.00,,,0.00,WUHU216WMR968SP,2013-03-09 07:57:00,
2013-03-09 03:02:00,32.2,26.7,30.27,ENE,67,0.0,0.0,80,0.00,,,0.00,WUHU216WMR968SP,2013-03-09 08:02:00,
2013-03-09 03:07:00,32.4,27.2,30.27,East,100,0.0,0.0,81,0.00,,,0.00,WUHU216WMR968SP,2013-03-09 08:07:00,
2013-03-09 03:12:00,32.0,26.8,30.27,ESE,106,0.0,0.0,81,0.00,,,0.00,WUHU216WMR968SP,2013-03-09 08:12:00,
2013-03-09 03:17:00,32.0,26.8,30.27,ESE,106,0.0,0.0,81,0.00,,,0.00,WUHU216WMR968SP,2013-03-09 08:17:00,
2013-03-09 03:22:00,32.0,26.8,30.27,ESE,106,0.0,0.0,81,0.00,,,0.00,WUHU216WMR968SP,2013-03-09 08:22:00,
2013-03-09 03:27:00,32.0,26.8,30.27,ESE,115,0.0,0.0,81,0.00,,,0.00,WUHU216WMR968SP,2013-03-09 08:27:00,
2013-03-09 03:32:00,32.2,27.0,30.27,ESE,115,0.0,0.0,81,0.00,,,0.00,WUHU216WMR968SP,2013-03-09 08:32:00,
2013-03-09 03:37:00,31.8,26.6,30.27,ESE,115,0.0,0.0,81,0.00,,,0.00,WUHU216WMR968SP,2013-03-09 08:37:00,
2013-03-09 03:42:00,31.5,26.3,30.27,ESE,115,0.0,0.0,81,0.00,,,0.00,WUHU216WMR968SP,2013-03-09 08:42:00,
2013-03-09 03:47:00,31.5,26.3,30.27,ESE,115,0.0,0.0,81,0.00,,,0.00,WUHU216WMR968SP,2013-03-09 08:47:00,
2013-03-09 03:52:00,31.3,26.1,30.27,ESE,115,0.0,0.0,81,0.00,,,0.00,WUHU216WMR968SP,2013-03-09 08:52:00,
2013-03-09 03:57:00,30.9,26.0,30.27,ESE,114,0.0,0.0,82,0.00,,,0.00,WUHU216WMR968SP,2013-03-09 08:57:00,
2013-03-09 04:02:00,31.5,26.9,30.27,ESE,114,0.0,0.0,83,0.00,,,0.00,WUHU216WMR968SP,2013-03-09 09:02:00,
2013-03-09 04:07:00,31.6,27.0,30.27,ESE,114,0.0,0.0,83,0.00,,,0.00,WUHU216WMR968SP,2013-03-09 09:07:00,
2013-03-09 04:13:00,31.8,27.2,30.27,ESE,115,0.0,0.0,83,0.00,,,0.00,WUHU216WMR968SP,2013-03-09 09:13:00,
2013-03-09 04:18:00,32.2,27.6,30.27,ESE,114,0.0,0.0,83,0.00,,,0.00,WUHU216WMR968SP,2013-03-09 09:18:00,
2013-03-09 04:23:00,32.2,27.6,30.27,ESE,114,0.0,0.0,83,0.00,,,0.00,WUHU216WMR968SP,2013-03-09 09:23:00,
2013-03-09 04:28:00,32.2,27.6,30.27,ESE,115,0.0,0.0,83,0.00,,,0.00,WUHU216WMR968SP,2013-03-09 09:28:00,
2013-03-09 04:33:00,32.5,28.2,30.27,ESE,114,0.0,0.0,84,0.00,,,0.00,WUHU216WMR968SP,2013-03-09 09:33:00,
2013-03-09 04:38:00,33.1,28.5,30.24,ESE,116,0.0,0.0,83,0.00,,,0.00,WUHU216WMR968SP,2013-03-09 09:38:00,
2013-03-09 04:43:00,33.3,28.7,30.24,ESE,116,0.0,0.0,83,0.00,,,0.00,WUHU216WMR968SP,2013-03-09 09:43:00,
2013-03-09 04:48:00,33.3,28.4,30.24,ESE,116,0.0,0.0,82,0.00,,,0.00,WUHU216WMR968SP,2013-03-09 09:48:00,
2013-03-09 04:53:00,33.4,28.5,30.27,ESE,116,0.0,0.0,82,0.00,,,0.00,WUHU216WMR968SP,2013-03-09 09:53:00,
2013-03-09 04:58:00,33.4,28.2,30.27,ESE,116,0.0,0.0,81,0.00,,,0.00,WUHU216WMR968SP,2013-03-09 09:58:00,
2013-03-09 05:03:00,33.1,27.6,30.27,ESE,116,0.0,0.0,80,0.00,,,0.00,WUHU216WMR968SP,2013-03-09 10:03:00,
2013-03-09 05:08:00,32.7,27.2,30.27,ESE,116,0.0,0.0,80,0.00,,,0.00,WUHU216WMR968SP,2013-03-09 10:08:00,
2013-03-09 05:13:00,32.4,26.9,30.27,ESE,116,0.0,0.0,80,0.00,,,0.00,WUHU216WMR968SP,2013-03-09 10:13:00,
2013-03-09 05:18:00,32.2,26.7,30.27,ESE,116,0.0,0.0,80,0.00,,,0.00,WUHU216WMR968SP,2013-03-09 10:18:00,
2013-03-09 05:23:00,32.2,26.7,30.27,ESE,116,0.0,0.0,80,0.00,,,0.00,WUHU216WMR968SP,2013-03-09 10:23:00,
2013-03-09 05:28:00,31.6,26.1,30.27,ESE,116,0.0,0.0,80,0.00,,,0.00,WUHU216WMR968SP,2013-03-09 10:28:00,
2013-03-09 05:33:00,31.6,26.1,30.27,ESE,116,0.0,0.0,80,0.00,,,0.00,WUHU216WMR968SP,2013-03-09 10:33:00,
2013-03-09 05:38:00,31.8,26.3,30.27,ESE,116,0.0,0.0,80,0.00,,,0.00,WUHU216WMR968SP,2013-03-09 10:38:00,
2013-03-09 05:43:00,31.8,26.3,30.27,ESE,116,0.0,0.0,80,0.00,,,0.00,WUHU216WMR968SP,2013-03-09 10:43:00,
2013-03-09 05:48:00,32.0,26.5,30.27,ESE,116,0.0,0.0,80,0.00,,,0.00,WUHU216WMR968SP,2013-03-09 10:48:00,
2013-03-09 05:53:00,32.2,26.7,30.27,ESE,116,0.0,0.0,80,0.00,,,0.00,WUHU216WMR968SP,2013-03-09 10:53:00,
2013-03-09 05:58:00,32.2,26.7,30.27,ESE,116,0.0,0.0,80,0.00,,,0.00,WUHU216WMR968SP,2013-03-09 10:58:00,
2013-03-09 06:03:00,32.4,27.2,30.27,ESE,116,0.0,0.0,81,0.00,,,0.00,WUHU216WMR968SP,2013-03-09 11:03:00,
2013-03-09 06:08:00,32.5,27.3,30.27,ESE,116,0.0,0.0,81,0.00,,,0.00,WUHU216WMR968SP,2013-03-09 11:08:00,
2013-03-09 06:13:00,32.7,27.8,30.27,ESE,116,0.0,0.0,82,0.00,,,0.00,WUHU216WMR968SP,2013-03-09 11:13:00,
2013-03-09 06:18:00,32.9,28.0,30.27,ESE,116,0.0,0.0,82,0.00,,,0.00,WUHU216WMR968SP,2013-03-09 11:18:00,
2013-03-09 06:23:00,33.1,28.2,30.27,ESE,116,0.0,0.0,82,0.00,,,0.00,WUHU216WMR968SP,2013-03-09 11:23:00,
2013-03-09 06:28:00,32.9,28.0,30.27,ESE,116,0.0,0.0,82,0.00,,,0.00,WUHU216WMR968SP,2013-03-09 11:28:00,
2013-03-09 06:33:00,33.1,28.2,30.27,ESE,116,0.0,0.0,82,0.00,,,0.00,WUHU216WMR968SP,2013-03-09 11:33:00,
2013-03-09 06:38:00,33.3,28.4,30.30,ESE,116,0.0,0.0,82,0.00,,,0.00,WUHU216WMR968SP,2013-03-09 11:38:00,
2013-03-09 06:43:00,33.3,28.4,30.30,ESE,116,0.0,0.0,82,0.00,,,0.00,WUHU216WMR968SP,2013-03-09 11:43:00,
2013-03-09 06:48:00,33.4,28.5,30.30,ESE,116,0.0,0.0,82,0.00,,,0.00,WUHU216WMR968SP,2013-03-09 11:48:00,
2013-03-09 06:53:00,33.3,28.4,30.30,ESE,116,0.0,0.0,82,0.00,,,0.00,WUHU216WMR968SP,2013-03-09 11:53:00,
2013-03-09 06:58:00,33.1,28.2,30.30,ESE,116,0.0,0.0,82,0.00,,,0.00,WUHU216WMR968SP,2013-03-09 11:58:00,
2013-03-09 07:03:00,32.9,28.0,30.30,ESE,116,0.0,0.0,82,0.00,,,0.00,WUHU216WMR968SP,2013-03-09 12:03:00,
2013-03-09 07:08:00,32.7,27.8,30.30,ESE,116,0.0,0.0,82,0.00,,,0.00,WUHU216WMR968SP,2013-03-09 12:08:00,
2013-03-09 07:13:00,32.5,27.6,30.30,ESE,116,0.0,0.0,82,0.00,,,0.00,WUHU216WMR968SP,2013-03-09 12:13:00,
2013-03-09 07:18:00,32.4,27.8,30.30,ESE,102,0.0,0.0,83,0.00,,,0.00,WUHU216WMR968SP,2013-03-09 12:18:00,
2013-03-09 07:23:00,32.2,27.6,30.30,ESE,102,0.0,0.0,83,0.00,,,0.00,WUHU216WMR968SP,2013-03-09 12:23:00,
2013-03-09 07:29:00,32.4,27.8,30.30,East,100,0.0,0.0,83,0.00,,,0.00,WUHU216WMR968SP,2013-03-09 12:29:00,
2013-03-09 07:34:00,32.7,28.1,30.30,East,100,0.0,0.0,83,0.00,,,0.00,WUHU216WMR968SP,2013-03-09 12:34:00,
2013-03-09 07:39:00,33.1,28.8,30.30,East,100,0.0,0.0,84,0.00,,,0.00,WUHU216WMR968SP,2013-03-09 12:39:00,
2013-03-09 07:44:00,33.6,29.3,30.30,East,100,0.0,0.0,84,0.00,,,0.00,WUHU216WMR968SP,2013-03-09 12:44:00,
2013-03-09 07:49:00,34.7,32.0,30.30,East,100,0.0,0.0,84,0.00,,,0.00,WUHU216WMR968SP,2013-03-09 12:49:00,
2013-03-09 07:54:00,35.4,32.0,30.30,ESE,102,0.0,0.0,84,0.00,,,0.00,WUHU216WMR968SP,2013-03-09 12:54:00,
2013-03-09 07:59:00,36.3,31.6,30.30,ESE,107,0.0,0.0,83,0.00,,,0.00,WUHU216WMR968SP,2013-03-09 12:59:00,
2013-03-09 08:04:00,36.7,32.0,30.30,ESE,107,0.0,0.0,82,0.00,,,0.00,WUHU216WMR968SP,2013-03-09 13:04:00,
2013-03-09 08:09:00,37.0,32.0,30.30,ESE,107,0.0,0.0,80,0.00,,,0.00,WUHU216WMR968SP,2013-03-09 13:09:00,
2013-03-09 08:14:00,37.4,32.0,30.30,ESE,107,0.0,0.0,79,0.00,,,0.00,WUHU216WMR968SP,2013-03-09 13:14:00,
2013-03-09 08:19:00,37.9,31.7,30.30,ESE,107,0.0,0.0,78,0.00,,,0.00,WUHU216WMR968SP,2013-03-09 13:19:00,
2013-03-09 08:24:00,38.7,32.0,30.30,ESE,107,0.0,0.0,77,0.00,,,0.00,WUHU216WMR968SP,2013-03-09 13:24:00,
2013-03-09 08:29:00,39.2,32.0,30.30,ENE,57,0.0,4.1,75,0.00,,,0.00,WUHU216WMR968SP,2013-03-09 13:29:00,
2013-03-09 08:34:00,39.9,32.0,30.30,NE,35,0.0,4.1,74,0.00,,,0.00,WUHU216WMR968SP,2013-03-09 13:34:00,
2013-03-09 08:39:00,41.0,32.0,30.30,NE,41,0.0,0.0,72,0.00,,,0.00,WUHU216WMR968SP,2013-03-09 13:39:00,
2013-03-09 08:44:00,41.5,32.0,30.30,ENE,74,0.0,0.0,70,0.00,,,0.00,WUHU216WMR968SP,2013-03-09 13:44:00,
2013-03-09 08:49:00,41.7,32.0,30.30,NNE,15,0.0,0.0,68,0.00,,,0.00,WUHU216WMR968SP,2013-03-09 13:49:00,
2013-03-09 08:54:00,41.5,31.4,30.30,NNE,15,0.0,0.0,67,0.00,,,0.00,WUHU216WMR968SP,2013-03-09 13:54:00,
2013-03-09 08:59:00,41.5,31.1,30.30,NNE,15,0.0,0.0,66,0.00,,,0.00,WUHU216WMR968SP,2013-03-09 13:59:00,
2013-03-09 09:04:00,41.5,30.3,30.30,ENE,68,0.0,0.0,64,0.00,,,0.00,WUHU216WMR968SP,2013-03-09 14:04:00,
2013-03-09 09:09:00,42.1,32.0,30.30,ENE,59,0.0,0.0,64,0.00,,,0.00,WUHU216WMR968SP,2013-03-09 14:09:00,
2013-03-09 09:14:00,42.4,32.0,30.30,North,357,0.0,0.0,63,0.00,,,0.00,WUHU216WMR968SP,2013-03-09 14:14:00,
2013-03-09 09:19:00,42.6,32.0,30.30,North,357,0.0,0.0,63,0.00,,,0.00,WUHU216WMR968SP,2013-03-09 14:19:00,
2013-03-09 09:24:00,42.8,30.4,30.30,North,357,0.0,0.0,61,0.00,,,0.00,WUHU216WMR968SP,2013-03-09 14:24:00,
2013-03-09 09:29:00,43.2,30.7,30.30,North,357,0.0,0.0,61,0.00,,,0.00,WUHU216WMR968SP,2013-03-09 14:29:00,
2013-03-09 09:34:00,44.6,32.0,30.30,NW,319,0.0,4.6,61,0.00,,,0.00,WUHU216WMR968SP,2013-03-09 14:34:00,
2013-03-09 09:39:00,44.2,32.0,30.30,SSW,192,0.0,6.0,60,0.00,,,0.00,WUHU216WMR968SP,2013-03-09 14:39:00,
2013-03-09 09:44:00,45.0,31.2,30.30,West,278,0.0,6.0,58,0.00,,,0.00,WUHU216WMR968SP,2013-03-09 14:44:00,
2013-03-09 09:49:00,45.9,32.0,30.30,North,357,0.0,0.0,58,0.00,,,0.00,WUHU216WMR968SP,2013-03-09 14:49:00,
2013-03-09 09:54:00,45.9,32.0,30.30,SW,229,0.0,4.1,56,0.00,,,0.00,WUHU216WMR968SP,2013-03-09 14:54:00,
2013-03-09 09:59:00,46.9,32.0,30.30,NNW,332,0.0,4.1,56,0.00,,,0.00,WUHU216WMR968SP,2013-03-09 14:59:00,
2013-03-09 10:04:00,48.2,32.0,30.30,WNW,292,3.3,5.4,55,0.00,,,0.00,WUHU216WMR968SP,2013-03-09 15:04:00,
2013-03-09 10:09:00,48.7,32.0,30.30,West,280,0.0,5.4,54,0.00,,,0.00,WUHU216WMR968SP,2013-03-09 15:09:00,
2013-03-09 10:14:00,48.9,32.0,30.30,WSW,253,3.3,5.4,53,0.00,,,0.00,WUHU216WMR968SP,2013-03-09 15:14:00,
2013-03-09 10:19:00,48.4,32.0,30.30,WSW,243,4.1,6.0,52,0.00,,,0.00,WUHU216WMR968SP,2013-03-09 15:19:00,
2013-03-09 10:25:00,48.7,32.0,30.30,West,276,3.3,6.0,53,0.00,,,0.00,WUHU216WMR968SP,2013-03-09 15:25:00,
2013-03-09 10:30:00,48.7,32.0,30.30,WNW,293,3.3,7.4,53,0.00,,,0.00,WUHU216WMR968SP,2013-03-09 15:30:00,
2013-03-09 10:35:00,48.4,32.0,30.30,West,279,4.1,8.7,52,0.00,,,0.00,WUHU216WMR968SP,2013-03-09 15:35:00,
2013-03-09 10:40:00,48.7,32.0,30.30,WSW,251,4.1,8.7,52,0.00,,,0.00,WUHU216WMR968SP,2013-03-09 15:40:00,
2013-03-09 10:45:00,48.9,32.0,30.30,NW,322,3.3,7.4,52,0.00,,,0.00,WUHU216WMR968SP,2013-03-09 15:45:00,
2013-03-09 10:50:00,48.7,32.0,30.30,SW,234,0.0,7.4,52,0.00,,,0.00,WUHU216WMR968SP,2013-03-09 15:50:00,
2013-03-09 10:55:00,48.9,31.5,30.30,WSW,240,6.0,8.7,51,0.00,,,0.00,WUHU216WMR968SP,2013-03-09 15:55:00,
2013-03-09 11:00:00,47.7,32.0,30.30,WSW,238,4.6,8.7,52,0.00,,,0.00,WUHU216WMR968SP,2013-03-09 16:00:00,
2013-03-09 11:05:00,48.4,32.0,30.30,West,274,3.3,7.4,52,0.00,,,0.00,WUHU216WMR968SP,2013-03-09 16:05:00,
2013-03-09 11:10:00,48.0,32.0,30.30,WSW,251,4.6,6.0,52,0.00,,,0.00,WUHU216WMR968SP,2013-03-09 16:10:00,
2013-03-09 11:15:00,48.7,31.4,30.30,South,179,3.3,6.0,51,0.00,,,0.00,WUHU216WMR968SP,2013-03-09 16:15:00,
2013-03-09 11:20:00,49.6,32.0,30.30,SW,227,0.0,6.0,51,0.00,,,0.00,WUHU216WMR968SP,2013-03-09 16:20:00,
2013-03-09 11:25:00,50.2,32.0,30.30,SW,224,4.6,7.4,50,0.00,,,0.00,WUHU216WMR968SP,2013-03-09 16:25:00,
2013-03-09 11:30:00,50.9,33.8,30.30,SW,216,3.3,9.5,49,0.00,,,0.00,WUHU216WMR968SP,2013-03-09 16:30:00,
2013-03-09 11:35:00,51.8,32.0,30.30,WSW,237,5.4,9.5,48,0.00,,,0.00,WUHU216WMR968SP,2013-03-09 16:35:00,
2013-03-09 11:40:00,52.2,32.0,30.30,WNW,294,0.0,9.5,47,0.00,,,0.00,WUHU216WMR968SP,2013-03-09 16:40:00,
2013-03-09 11:45:00,52.3,32.0,30.30,WSW,255,5.4,9.5,47,0.00,,,0.00,WUHU216WMR968SP,2013-03-09 16:45:00,
2013-03-09 11:50:00,52.9,33.8,30.30,WNW,291,6.0,9.5,47,0.00,,,0.00,WUHU216WMR968SP,2013-03-09 16:50:00,
2013-03-09 11:55:00,53.1,33.8,30.30,WSW,237,3.3,8.7,46,0.00,,,0.00,WUHU216WMR968SP,2013-03-09 16:55:00,
2013-03-09 12:00:00,52.9,33.8,30.30,WSW,249,5.4,9.5,46,0.00,,,0.00,WUHU216WMR968SP,2013-03-09 17:00:00,
2013-03-09 12:05:00,54.0,33.8,30.30,NW,306,4.6,9.5,46,0.00,,,0.00,WUHU216WMR968SP,2013-03-09 17:05:00,
2013-03-09 12:10:00,54.0,32.0,30.30,NW,319,3.3,9.5,45,0.00,,,0.00,WUHU216WMR968SP,2013-03-09 17:10:00,
2013-03-09 12:15:00,55.9,33.8,30.30,NW,309,0.0,7.4,45,0.00,,,0.00,WUHU216WMR968SP,2013-03-09 17:15:00,
2013-03-09 12:20:00,55.9,33.8,30.30,WNW,294,3.3,8.1,44,0.00,,,0.00,WUHU216WMR968SP,2013-03-09 17:20:00,
2013-03-09 12:25:00,55.8,33.8,30.30,NW,310,5.4,8.1,44,0.00,,,0.00,WUHU216WMR968SP,2013-03-09 17:25:00,
2013-03-09 12:30:00,55.9,33.8,30.30,NNW,328,4.1,7.4,43,0.00,,,0.00,WUHU216WMR968SP,2013-03-09 17:30:00,
2013-03-09 12:35:00,55.9,33.8,30.27,North,357,3.3,5.4,43,0.00,,,0.00,WUHU216WMR968SP,2013-03-09 17:35:00,
2013-03-09 12:40:00,55.9,32.0,30.27,North,353,3.3,5.4,42,0.00,,,0.00,WUHU216WMR968SP,2013-03-09 17:40:00,
2013-03-09 12:45:00,55.9,32.0,30.27,South,182,0.0,4.6,42,0.00,,,0.00,WUHU216WMR968SP,2013-03-09 17:45:00,
2013-03-09 12:50:00,56.1,33.8,30.27,WNW,284,4.1,5.4,43,0.00,,,0.00,WUHU216WMR968SP,2013-03-09 17:50:00,
2013-03-09 12:56:00,57.2,33.8,30.27,NNW,346,0.0,5.4,42,0.00,,,0.00,WUHU216WMR968SP,2013-03-09 17:56:00,
2013-03-09 13:01:00,58.8,35.6,30.27,North,349,0.0,5.4,41,0.00,,,0.00,WUHU216WMR968SP,2013-03-09 18:01:00,
2013-03-09 13:06:00,59.9,35.6,30.27,SSE,150,4.6,6.0,40,0.00,,,0.00,WUHU216WMR968SP,2013-03-09 18:06:00,
2013-03-09 13:11:00,59.4,35.6,30.27,WSW,249,4.6,6.8,40,0.00,,,0.00,WUHU216WMR968SP,2013-03-09 18:11:00,
2013-03-09 13:16:00,59.4,35.6,30.27,North,353,3.3,6.8,40,0.00,,,0.00,WUHU216WMR968SP,2013-03-09 18:16:00,
2013-03-09 13:21:00,59.7,35.6,30.24,WNW,286,0.0,6.0,40,0.00,,,0.00,WUHU216WMR968SP,2013-03-09 18:21:00,
2013-03-09 13:26:00,60.8,35.6,30.24,NW,317,4.1,7.4,39,0.00,,,0.00,WUHU216WMR968SP,2013-03-09 18:26:00,
2013-03-09 13:31:00,61.7,37.4,30.24,West,274,3.3,7.4,39,0.00,,,0.00,WUHU216WMR968SP,2013-03-09 18:31:00,
2013-03-09 13:36:00,60.4,35.6,30.24,WSW,253,4.6,7.4,39,0.00,,,0.00,WUHU216WMR968SP,2013-03-09 18:36:00,
2013-03-09 13:41:00,59.0,33.8,30.24,WNW,295,3.3,9.5,39,0.00,,,0.00,WUHU216WMR968SP,2013-03-09 18:41:00,
2013-03-09 13:46:00,59.2,33.8,30.24,NW,322,4.6,9.5,39,0.00,,,0.00,WUHU216WMR968SP,2013-03-09 18:46:00,
2013-03-09 13:51:00,58.8,33.8,30.24,NW,316,4.1,7.4,39,0.00,,,0.00,WUHU216WMR968SP,2013-03-09 18:51:00,
2013-03-09 13:56:00,58.5,33.8,30.24,WNW,302,4.1,6.8,39,0.00,,,0.00,WUHU216WMR968SP,2013-03-09 18:56:00,
2013-03-09 14:01:00,58.5,33.8,30.24,West,276,0.0,7.4,39,0.00,,,0.00,WUHU216WMR968SP,2013-03-09 19:01:00,
2013-03-09 14:06:00,58.1,33.8,30.24,NW,324,0.0,7.4,39,0.00,,,0.00,WUHU216WMR968SP,2013-03-09 19:06:00,
2013-03-09 14:11:00,57.7,32.0,30.24,West,265,0.0,4.6,39,0.00,,,0.00,WUHU216WMR968SP,2013-03-09 19:11:00,
2013-03-09 14:16:00,57.9,33.8,30.24,WSW,254,0.0,4.6,40,0.00,,,0.00,WUHU216WMR968SP,2013-03-09 19:16:00,
2013-03-09 14:21:00,57.7,33.8,30.24,WSW,246,4.1,7.4,40,0.00,,,0.00,WUHU216WMR968SP,2013-03-09 19:21:00,
2013-03-09 14:26:00,57.9,33.8,30.24,NW,308,0.0,7.4,40,0.00,,,0.00,WUHU216WMR968SP,2013-03-09 19:26:00,
2013-03-09 14:31:00,58.1,35.6,30.24,SW,235,3.3,6.0,40,0.00,,,0.00,WUHU216WMR968SP,2013-03-09 19:31:00,
2013-03-09 14:36:00,58.5,35.6,30.24,WSW,252,4.1,6.0,40,0.00,,,0.00,WUHU216WMR968SP,2013-03-09 19:36:00,
2013-03-09 14:41:00,58.5,33.8,30.24,WSW,237,5.4,6.0,39,0.00,,,0.00,WUHU216WMR968SP,2013-03-09 19:41:00,
2013-03-09 14:46:00,59.0,33.8,30.24,WNW,288,4.1,7.4,39,0.00,,,0.00,WUHU216WMR968SP,2013-03-09 19:46:00,
2013-03-09 14:51:00,59.0,33.8,30.21,WNW,285,0.0,7.4,38,0.00,,,0.00,WUHU216WMR968SP,2013-03-09 19:51:00,
2013-03-09 14:56:00,59.2,33.8,30.21,West,265,3.3,7.4,39,0.00,,,0.00,WUHU216WMR968SP,2013-03-09 19:56:00,
2013-03-09 15:01:00,59.0,33.8,30.21,WSW,244,0.0,6.0,38,0.00,,,0.00,WUHU216WMR968SP,2013-03-09 20:01:00,
2013-03-09 15:06:00,59.0,33.8,30.21,NW,322,4.1,6.0,39,0.00,,,0.00,WUHU216WMR968SP,2013-03-09 20:06:00,
2013-03-09 15:11:00,59.2,33.8,30.21,West,271,4.1,8.7,39,0.00,,,0.00,WUHU216WMR968SP,2013-03-09 20:11:00,
2013-03-09 15:16:00,58.8,33.8,30.21,West,268,0.0,8.7,39,0.00,,,0.00,WUHU216WMR968SP,2013-03-09 20:16:00,
2013-03-09 15:21:00,59.2,33.8,30.21,WNW,284,0.0,6.8,39,0.00,,,0.00,WUHU216WMR968SP,2013-03-09 20:21:00,
2013-03-09 15:26:00,59.2,33.8,30.21,WNW,297,0.0,4.6,39,0.00,,,0.00,WUHU216WMR968SP,2013-03-09 20:26:00,
2013-03-09 15:32:00,59.2,33.8,30.21,West,275,0.0,4.6,39,0.00,,,0.00,WUHU216WMR968SP,2013-03-09 20:32:00,
2013-03-09 15:37:00,59.2,33.8,30.21,WSW,249,0.0,0.0,39,0.00,,,0.00,WUHU216WMR968SP,2013-03-09 20:37:00,
2013-03-09 15:42:00,58.8,33.8,30.21,WSW,256,0.0,0.0,39,0.00,,,0.00,WUHU216WMR968SP,2013-03-09 20:42:00,
2013-03-09 15:47:00,58.8,33.8,30.21,WSW,238,0.0,7.4,39,0.00,,,0.00,WUHU216WMR968SP,2013-03-09 20:47:00,
2013-03-09 15:52:00,59.0,33.8,30.21,WSW,249,0.0,7.4,38,0.00,,,0.00,WUHU216WMR968SP,2013-03-09 20:52:00,
2013-03-09 15:57:00,58.8,33.8,30.21,WSW,258,0.0,4.1,39,0.00,,,0.00,WUHU216WMR968SP,2013-03-09 20:57:00,
2013-03-09 16:02:00,58.8,33.8,30.21,NW,311,0.0,4.6,39,0.00,,,0.00,WUHU216WMR968SP,2013-03-09 21:02:00,
2013-03-09 16:07:00,59.0,33.8,30.21,WNW,287,0.0,4.6,39,0.00,,,0.00,WUHU216WMR968SP,2013-03-09 21:07:00,
2013-03-09 16:12:00,58.8,33.8,30.21,West,274,0.0,4.6,39,0.00,,,0.00,WUHU216WMR968SP,2013-03-09 21:12:00,
2013-03-09 16:17:00,58.3,35.6,30.21,WSW,257,0.0,4.6,40,0.00,,,0.00,WUHU216WMR968SP,2013-03-09 21:17:00,
2013-03-09 16:22:00,57.9,33.8,30.21,WSW,257,0.0,0.0,41,0.00,,,0.00,WUHU216WMR968SP,2013-03-09 21:22:00,
2013-03-09 16:27:00,57.9,33.8,30.21,WSW,257,0.0,0.0,41,0.00,,,0.00,WUHU216WMR968SP,2013-03-09 21:27:00,
2013-03-09 16:32:00,57.9,33.8,30.21,West,260,0.0,0.0,41,0.00,,,0.00,WUHU216WMR968SP,2013-03-09 21:32:00,
2013-03-09 16:37:00,58.1,35.6,30.21,West,260,0.0,0.0,42,0.00,,,0.00,WUHU216WMR968SP,2013-03-09 21:37:00,
2013-03-09 16:42:00,58.1,35.6,30.21,WSW,254,0.0,0.0,41,0.00,,,0.00,WUHU216WMR968SP,2013-03-09 21:42:00,
2013-03-09 16:47:00,58.1,35.6,30.21,WSW,239,0.0,0.0,41,0.00,,,0.00,WUHU216WMR968SP,2013-03-09 21:47:00,
2013-03-09 16:52:00,58.1,35.6,30.18,WSW,239,0.0,0.0,42,0.00,,,0.00,WUHU216WMR968SP,2013-03-09 21:52:00,
2013-03-09 16:57:00,58.1,35.6,30.18,WSW,239,0.0,0.0,42,0.00,,,0.00,WUHU216WMR968SP,2013-03-09 21:57:00,
2013-03-09 17:02:00,58.1,37.4,30.18,WSW,239,0.0,0.0,43,0.00,,,0.00,WUHU216WMR968SP,2013-03-09 22:02:00,
2013-03-09 17:07:00,57.9,35.6,30.21,WSW,239,0.0,0.0,44,0.00,,,0.00,WUHU216WMR968SP,2013-03-09 22:07:00,
2013-03-09 17:12:00,57.9,35.6,30.21,WSW,239,0.0,0.0,43,0.00,,,0.00,WUHU216WMR968SP,2013-03-09 22:12:00,
2013-03-09 17:17:00,57.7,35.6,30.21,WSW,239,0.0,0.0,43,0.00,,,0.00,WUHU216WMR968SP,2013-03-09 22:17:00,
2013-03-09 17:22:00,57.6,35.6,30.18,WSW,241,3.3,6.0,44,0.00,,,0.00,WUHU216WMR968SP,2013-03-09 22:22:00,
2013-03-09 17:27:00,57.6,35.6,30.18,West,269,0.0,6.0,44,0.00,,,0.00,WUHU216WMR968SP,2013-03-09 22:27:00,
2013-03-09 17:32:00,57.6,35.6,30.18,WSW,258,0.0,3.3,43,0.00,,,0.00,WUHU216WMR968SP,2013-03-09 22:32:00,
2013-03-09 17:37:00,57.6,35.6,30.18,WSW,251,0.0,0.0,45,0.00,,,0.00,WUHU216WMR968SP,2013-03-09 22:37:00,
2013-03-09 17:42:00,57.4,35.6,30.18,WSW,251,0.0,0.0,44,0.00,,,0.00,WUHU216WMR968SP,2013-03-09 22:42:00,
2013-03-09 17:47:00,57.2,35.6,30.18,WSW,251,0.0,0.0,44,0.00,,,0.00,WUHU216WMR968SP,2013-03-09 22:47:00,
2013-03-09 17:52:00,57.2,35.6,30.18,WSW,251,0.0,0.0,45,0.00,,,0.00,WUHU216WMR968SP,2013-03-09 22:52:00,
2013-03-09 17:57:00,57.0,35.6,30.18,WSW,251,0.0,0.0,45,0.00,,,0.00,WUHU216WMR968SP,2013-03-09 22:57:00,
2013-03-09 18:02:00,57.0,35.6,30.18,WSW,251,0.0,0.0,44,0.00,,,0.00,WUHU216WMR968SP,2013-03-09 23:02:00,
2013-03-09 18:07:00,56.8,35.6,30.18,WSW,251,0.0,0.0,45,0.00,,,0.00,WUHU216WMR968SP,2013-03-09 23:07:00,
2013-03-09 18:12:00,56.7,35.6,30.18,WSW,251,0.0,0.0,45,0.00,,,0.00,WUHU216WMR968SP,2013-03-09 23:12:00,
2013-03-09 18:17:00,55.9,33.8,30.18,WSW,251,0.0,0.0,45,0.00,,,0.00,WUHU216WMR968SP,2013-03-09 23:17:00,
2013-03-09 18:22:00,55.6,35.6,30.18,WSW,251,0.0,0.0,46,0.00,,,0.00,WUHU216WMR968SP,2013-03-09 23:22:00,
2013-03-09 18:27:00,54.9,35.6,30.18,WSW,251,0.0,0.0,47,0.00,,,0.00,WUHU216WMR968SP,2013-03-09 23:27:00,
2013-03-09 18:33:00,53.6,35.6,30.18,WSW,251,0.0,0.0,49,0.00,,,0.00,WUHU216WMR968SP,2013-03-09 23:33:00,
2013-03-09 18:38:00,52.9,35.6,30.18,WSW,251,0.0,0.0,50,0.00,,,0.00,WUHU216WMR968SP,2013-03-09 23:38:00,
2013-03-09 18:43:00,52.5,33.8,30.18,WSW,251,0.0,0.0,50,0.00,,,0.00,WUHU216WMR968SP,2013-03-09 23:43:00,
2013-03-09 18:48:00,52.0,33.8,30.18,WSW,251,0.0,0.0,50,0.00,,,0.00,WUHU216WMR968SP,2013-03-09 23:48:00,
2013-03-09 18:53:00,51.6,33.8,30.18,WSW,251,0.0,0.0,51,0.00,,,0.00,WUHU216WMR968SP,2013-03-09 23:53:00,
2013-03-09 18:58:00,51.1,33.8,30.18,WSW,251,0.0,0.0,51,0.00,,,0.00,WUHU216WMR968SP,2013-03-09 23:58:00,
2013-03-09 19:03:00,50.7,32.0,30.18,WSW,251,0.0,0.0,51,0.00,,,0.00,WUHU216WMR968SP,2013-03-10 00:03:00,
2013-03-09 19:08:00,50.5,32.0,30.18,WSW,251,0.0,0.0,51,0.00,,,0.00,WUHU216WMR968SP,2013-03-10 00:08:00,
2013-03-09 19:13:00,50.4,32.0,30.18,WSW,251,0.0,0.0,51,0.00,,,0.00,WUHU216WMR968SP,2013-03-10 00:13:00,
2013-03-09 19:18:00,50.2,32.0,30.18,WSW,246,0.0,0.0,51,0.00,,,0.00,WUHU216WMR968SP,2013-03-10 00:18:00,
2013-03-09 19:23:00,50.0,32.0,30.18,WSW,246,0.0,0.0,51,0.00,,,0.00,WUHU216WMR968SP,2013-03-10 00:23:00,
2013-03-09 19:28:00,49.8,33.8,30.18,WSW,246,0.0,0.0,52,0.00,,,0.00,WUHU216WMR968SP,2013-03-10 00:28:00,
2013-03-09 19:33:00,49.6,33.8,30.18,WSW,246,0.0,0.0,52,0.00,,,0.00,WUHU216WMR968SP,2013-03-10 00:33:00,
2013-03-09 19:38:00,49.5,33.8,30.18,WSW,246,0.0,0.0,52,0.00,,,0.00,WUHU216WMR968SP,2013-03-10 00:38:00,
2013-03-09 19:43:00,49.3,33.8,30.18,WSW,246,0.0,0.0,52,0.00,,,0.00,WUHU216WMR968SP,2013-03-10 00:43:00,
2013-03-09 19:48:00,49.3,33.8,30.18,WSW,238,0.0,0.0,53,0.00,,,0.00,WUHU216WMR968SP,2013-03-10 00:48:00,
2013-03-09 19:53:00,49.1,33.8,30.18,SW,214,0.0,0.0,52,0.00,,,0.00,WUHU216WMR968SP,2013-03-10 00:53:00,
2013-03-09 19:58:00,49.5,33.8,30.18,SSE,154,0.0,0.0,52,0.00,,,0.00,WUHU216WMR968SP,2013-03-10 00:58:00,
2013-03-09 20:03:00,49.6,32.0,30.18,SE,143,3.3,4.6,51,0.00,,,0.00,WUHU216WMR968SP,2013-03-10 01:03:00,
2013-03-09 20:08:00,49.5,32.0,30.18,SE,133,0.0,4.6,51,0.00,,,0.00,WUHU216WMR968SP,2013-03-10 01:08:00,
2013-03-09 20:13:00,49.1,32.0,30.18,SE,128,0.0,3.3,51,0.00,,,0.00,WUHU216WMR968SP,2013-03-10 01:13:00,
2013-03-09 20:18:00,48.9,31.5,30.18,SE,128,0.0,0.0,51,0.00,,,0.00,WUHU216WMR968SP,2013-03-10 01:18:00,
2013-03-09 20:23:00,48.9,31.5,30.18,ESE,122,0.0,0.0,51,0.00,,,0.00,WUHU216WMR968SP,2013-03-10 01:23:00,
2013-03-09 20:28:00,48.9,31.5,30.18,ESE,122,0.0,0.0,51,0.00,,,0.00,WUHU216WMR968SP,2013-03-10 01:28:00,
2013-03-09 20:33:00,49.3,32.0,30.18,ESE,122,0.0,4.6,51,0.00,,,0.00,WUHU216WMR968SP,2013-03-10 01:33:00,
2013-03-09 20:38:00,48.9,31.5,30.18,ESE,122,0.0,4.6,51,0.00,,,0.00,WUHU216WMR968SP,2013-03-10 01:38:00,
2013-03-09 20:43:00,48.7,32.0,30.18,ESE,122,0.0,3.3,52,0.00,,,0.00,WUHU216WMR968SP,2013-03-10 01:43:00,
2013-03-09 20:48:00,48.0,32.0,30.18,ESE,122,0.0,0.0,53,0.00,,,0.00,WUHU216WMR968SP,2013-03-10 01:48:00,
2013-03-09 20:53:00,47.7,32.0,30.18,ESE,122,0.0,0.0,54,0.00,,,0.00,WUHU216WMR968SP,2013-03-10 01:53:00,
2013-03-09 20:58:00,47.5,32.0,30.18,ESE,122,0.0,0.0,54,0.00,,,0.00,WUHU216WMR968SP,2013-03-10 01:58:00,
2013-03-09 21:04:00,47.3,32.0,30.18,ESE,122,0.0,0.0,55,0.00,,,0.00,WUHU216WMR968SP,2013-03-10 02:04:00,
2013-03-09 21:09:00,47.1,32.0,30.18,ESE,122,0.0,0.0,56,0.00,,,0.00,WUHU216WMR968SP,2013-03-10 02:09:00,
2013-03-09 21:14:00,46.8,32.0,30.18,ESE,122,0.0,0.0,57,0.00,,,0.00,WUHU216WMR968SP,2013-03-10 02:14:00,
2013-03-09 21:19:00,46.9,32.0,30.18,ESE,122,0.0,0.0,56,0.00,,,0.00,WUHU216WMR968SP,2013-03-10 02:19:00,
2013-03-09 21:24:00,46.6,33.8,30.18,ESE,122,0.0,0.0,59,0.00,,,0.00,WUHU216WMR968SP,2013-03-10 02:24:00,
2013-03-09 21:29:00,46.4,33.8,30.18,ESE,122,0.0,0.0,59,0.00,,,0.00,WUHU216WMR968SP,2013-03-10 02:29:00,
2013-03-09 21:34:00,46.6,33.8,30.18,ESE,122,0.0,0.0,59,0.00,,,0.00,WUHU216WMR968SP,2013-03-10 02:34:00,
2013-03-09 21:39:00,46.0,33.8,30.18,ESE,122,0.0,0.0,61,0.00,,,0.00,WUHU216WMR968SP,2013-03-10 02:39:00,
2013-03-09 21:44:00,45.5,33.8,30.18,ESE,122,0.0,0.0,62,0.00,,,0.00,WUHU216WMR968SP,2013-03-10 02:44:00,
2013-03-09 21:49:00,45.1,32.0,30.18,ESE,122,0.0,0.0,63,0.00,,,0.00,WUHU216WMR968SP,2013-03-10 02:49:00,
2013-03-09 21:54:00,44.6,33.8,30.18,ESE,111,0.0,0.0,64,0.00,,,0.00,WUHU216WMR968SP,2013-03-10 02:54:00,
2013-03-09 21:59:00,44.4,33.8,30.18,ESE,110,0.0,0.0,65,0.00,,,0.00,WUHU216WMR968SP,2013-03-10 02:59:00,
2013-03-09 22:04:00,44.1,33.8,30.18,ESE,111,0.0,0.0,65,0.00,,,0.00,WUHU216WMR968SP,2013-03-10 03:04:00,
2013-03-09 22:09:00,44.2,32.0,30.18,ESE,110,0.0,0.0,63,0.00,,,0.00,WUHU216WMR968SP,2013-03-10 03:09:00,
2013-03-09 22:14:00,44.1,32.0,30.18,ESE,110,0.0,0.0,63,0.00,,,0.00,WUHU216WMR968SP,2013-03-10 03:14:00,
2013-03-09 22:19:00,44.1,32.0,30.18,ESE,110,0.0,0.0,62,0.00,,,0.00,WUHU216WMR968SP,2013-03-10 03:19:00,
2013-03-09 22:24:00,43.3,32.0,30.21,ESE,110,0.0,0.0,63,0.00,,,0.00,WUHU216WMR968SP,2013-03-10 03:24:00,
2013-03-09 22:29:00,43.0,32.0,30.21,ESE,110,0.0,0.0,64,0.00,,,0.00,WUHU216WMR968SP,2013-03-10 03:29:00,
2013-03-09 22:34:00,42.8,32.0,30.21,ESE,110,0.0,0.0,65,0.00,,,0.00,WUHU216WMR968SP,2013-03-10 03:34:00,
2013-03-09 22:39:00,43.2,32.0,30.18,ESE,110,0.0,0.0,65,0.00,,,0.00,WUHU216WMR968SP,2013-03-10 03:39:00,
2013-03-09 22:44:00,43.0,32.0,30.18,ESE,110,0.0,0.0,65,0.00,,,0.00,WUHU216WMR968SP,2013-03-10 03:44:00,
2013-03-09 22:49:00,42.4,32.0,30.18,ESE,110,0.0,0.0,65,0.00,,,0.00,WUHU216WMR968SP,2013-03-10 03:49:00,
2013-03-09 22:54:00,42.6,32.0,30.18,ESE,110,0.0,0.0,65,0.00,,,0.00,WUHU216WMR968SP,2013-03-10 03:54:00,
2013-03-09 22:59:00,42.3,32.0,30.18,ESE,110,0.0,0.0,66,0.00,,,0.00,WUHU216WMR968SP,2013-03-10 03:59:00,
2013-03-09 23:04:00,42.1,32.0,30.18,ESE,110,0.0,0.0,66,0.00,,,0.00,WUHU216WMR968SP,2013-03-10 04:04:00,
2013-03-09 23:09:00,41.5,31.4,30.18,ESE,110,0.0,0.0,67,0.00,,,0.00,WUHU216WMR968SP,2013-03-10 04:09:00,
2013-03-09 23:14:00,41.2,31.2,30.18,ESE,110,0.0,0.0,67,0.00,,,0.00,WUHU216WMR968SP,2013-03-10 04:14:00,
2013-03-09 23:19:00,40.6,32.0,30.18,ESE,110,0.0,0.0,69,0.00,,,0.00,WUHU216WMR968SP,2013-03-10 04:19:00,
2013-03-09 23:24:00,41.2,32.0,30.18,ESE,110,0.0,0.0,69,0.00,,,0.00,WUHU216WMR968SP,2013-03-10 04:24:00,
2013-03-09 23:29:00,41.0,32.0,30.18,ESE,110,0.0,0.0,69,0.00,,,0.00,WUHU216WMR968SP,2013-03-10 04:29:00,
2013-03-09 23:34:00,41.0,32.0,30.18,ESE,110,0.0,0.0,70,0.00,,,0.00,WUHU216WMR968SP,2013-03-10 04:34:00,
2013-03-09 23:39:00,41.0,32.0,30.18,ESE,110,0.0,0.0,69,0.00,,,0.00,WUHU216WMR968SP,2013-03-10 04:39:00,
2013-03-09 23:44:00,41.0,32.0,30.18,ESE,110,0.0,0.0,70,0.00,,,0.00,WUHU216WMR968SP,2013-03-10 04:44:00,
2013-03-09 23:50:00,41.0,32.0,30.18,ESE,110,0.0,0.0,70,0.00,,,0.00,WUHU216WMR968SP,2013-03-10 04:50:00,
2013-03-09 23:55:00,41.2,32.0,30.18,ESE,110,0.0,0.0,71,0.00,,,0.00,WUHU216WMR968SP,2013-03-10 04:55:00,